Timişoara, România

10:29 AM EEST on septembrie 01, 2014 (GMT +0300)
Dumbravita | Change Station
CLOSE
Current Station
Staţie meteo personală
Location: Timisoara, Timis
Elevation: 305 ft
Nearby Weather Stations

Elev 305 ft 45.80 °N, 21.24 °E | Updated 37 seconds ago

Clear
Cer senin
72.5 °F
Feels Like 76 °F
N
8.0
Vânt variabil Vânt from ESE
Gusts 11.0 mph

astăzi
High -- | Low -- °F
--% Chance of Precip.
Ieri
High -- | Low -- °F
Precip. -- inch
6:55 AM 8:13 PM
Semilună în creştere, 38% visible
Presiunea 29.77 inch
Vizibilitatea -9999.0 mile
Nori
Indicele de căldură 76 °F
Punctul de rouă 49 °F
Umiditatea 62%
Precipitaţii 0.00 inch
Adâncimea zăpezii Not available.
UV 1.1 out of 12
Pollen Not available.
Calitatea aerului Not available.
Flu Activity Not available.
METAR LRTR 010700Z 09009KT 060V130 CAVOK 22/14 Q1008 NOSIG

More Conditions Fewer Conditions

Presiunea 29.77 inch
Vizibilitatea -9999.0 mile
Nori
Indicele de căldură 76 °F
Punctul de rouă 49 °F
Umiditatea 62%
Precipitaţii 0.00 inch
Adâncimea zăpezii Not available.
UV 1.1 out of 12
Pollen Not available.
Calitatea aerului Not available.
Flu Activity Not available.
METAR LRTR 010700Z 09009KT 060V130 CAVOK 22/14 Q1008 NOSIG

More Conditions Fewer Conditions

10-Day Weather Forecast

Almanac

Astronomie

Sep. 01, 2014 Răsărit Apus
Timpul Actual 6:55 AM EEST 8:13 PM EEST
Crepusculul Civil 6:24 AM EEST 8:44 PM EEST
Crepusculul nautic 5:47 AM EEST 9:21 PM EEST
Răsărit Astronomic 5:08 AM EEST 10:00 PM EEST
Luna 1:43 PM EEST 11:39 PM EEST
Durata zilei lumină 14h 19m
Lungimea zilei
13h 17m
Tomorrow will be 3m 6s shorter.
Semilună în creştere, 38% of the Moon is Illuminated
astăzi
Semilună în creştere
Sep 2
Primul pătrar
Sep 8
Lună plină
Sep 15
Ultimul pătrar
Sep 24
New

Yesterday's Extremes

Country Highs Country Lows

Community

WunderPhotos

Upload Photos

1,749,154 photos uploaded!

Nearby

Calitatea aerului

Not available.

Adâncimea zapezii

Not available.

Earthquake Activity

Oraş Distance Mag. Time & Date
No recent earthquake activity has been reported nearby.
Minimum magnitude displayed is 2.5.

Coastal Water Temperatures

Locul Temperatura
No Stations Reporting

Nearby Weather Stations